Time;durP1;ratioP1;P1;durP2;ratioP2;P2;SDS_P1;SDS_P2;PMS_P1;PMS_P2;Temp;Humidity;BMP_temperature;BMP_pressure;BME280_temperature;BME280_humidity;BME280_pressure;Samples;Min_cycle;Max_cycle;Signal;HPM_P1;HPM_P2
2022/03/20 00:00:01;;;;;;;24.65;21.15;;;7.60;57.30;;;;;;5046583;28;20217;-65
2022/03/20 00:02:32;;;;;;;26.10;21.77;;;7.50;57.10;;;;;;5050844;28;20228;-66
2022/03/20 00:05:00;;;;;;;28.33;23.30;;;7.50;57.10;;;;;;5037332;28;20220;-65
2022/03/20 00:07:27;;;;;;;26.08;21.20;;;7.40;56.80;;;;;;5050752;28;20228;-65
2022/03/20 00:09:54;;;;;;;25.55;21.33;;;7.40;56.70;;;;;;5048345;28;20240;-65
2022/03/20 00:12:21;;;;;;;24.52;20.50;;;7.40;56.90;;;;;;5043050;28;20230;-64
2022/03/20 00:14:48;;;;;;;25.77;20.83;;;7.40;56.70;;;;;;5047668;28;20225;-64
2022/03/20 00:17:16;;;;;;;22.65;20.05;;;7.40;56.30;;;;;;5044457;28;20236;-65
2022/03/20 00:19:44;;;;;;;22.90;19.80;;;7.40;56.10;;;;;;5046231;28;20230;-65
2022/03/20 00:22:12;;;;;;;27.70;19.20;;;7.50;56.00;;;;;;5050285;28;20226;-65
2022/03/20 00:24:41;;;;;;;24.45;18.98;;;7.50;55.70;;;;;;5048851;28;20287;-65
2022/03/20 00:27:08;;;;;;;22.70;20.30;;;7.40;55.10;;;;;;5046737;28;20287;-65
2022/03/20 00:29:35;;;;;;;26.83;19.80;;;7.50;55.30;;;;;;5044756;28;20222;-65
2022/03/20 00:32:02;;;;;;;24.00;21.25;;;7.50;54.90;;;;;;5036723;28;20233;-65
2022/03/20 00:34:30;;;;;;;25.25;19.90;;;7.50;54.80;;;;;;5054412;28;20228;-65
2022/03/20 00:36:57;;;;;;;25.45;20.08;;;7.50;54.80;;;;;;5052528;28;20319;-65
2022/03/20 00:39:24;;;;;;;23.50;21.08;;;7.50;54.60;;;;;;5051941;28;20248;-65
2022/03/20 00:41:51;;;;;;;22.50;20.20;;;7.50;54.60;;;;;;5054904;28;20660;-65
2022/03/20 00:44:18;;;;;;;26.33;21.05;;;7.50;54.40;;;;;;5054934;28;20224;-64
2022/03/20 00:46:45;;;;;;;23.23;20.25;;;7.50;54.40;;;;;;5048779;28;20240;-65
2022/03/20 00:49:18;;;;;;;24.65;19.90;;;7.40;54.50;;;;;;5053026;28;20225;-65
2022/03/20 00:51:46;;;;;;;22.92;18.50;;;7.30;54.40;;;;;;5054583;28;20576;-65
2022/03/20 00:54:13;;;;;;;24.52;20.02;;;7.40;54.50;;;;;;5054360;28;20659;-65
2022/03/20 00:56:40;;;;;;;26.52;20.20;;;7.30;54.30;;;;;;5054735;28;20221;-65
2022/03/20 00:59:07;;;;;;;28.08;21.10;;;7.30;54.40;;;;;;5041392;28;20225;-65
2022/03/20 01:01:34;;;;;;;25.05;19.67;;;7.30;54.20;;;;;;5054803;28;20229;-65
2022/03/20 01:04:01;;;;;;;22.80;17.90;;;7.30;54.30;;;;;;5054550;28;20236;-65
2022/03/20 01:06:28;;;;;;;26.42;19.38;;;7.30;54.30;;;;;;5054630;28;20681;-66
2022/03/20 01:08:59;;;;;;;26.25;19.77;;;7.30;54.40;;;;;;5054142;28;20236;-65
2022/03/20 01:11:26;;;;;;;22.02;18.85;;;7.30;54.30;;;;;;5054669;28;20687;-65
2022/03/20 01:13:55;;;;;;;24.52;20.20;;;7.30;54.20;;;;;;5053458;28;20225;-66
2022/03/20 01:27:39;;;;;;;25.10;20.00;;;7.20;54.50;;;;;;4993125;28;20237;-66
2022/03/20 01:30:16;;;;;;;28.33;19.90;;;7.20;54.50;;;;;;4982634;28;20310;-66
2022/03/20 01:32:43;;;;;;;22.65;18.65;;;7.10;54.70;;;;;;5039393;28;20766;-65
2022/03/20 01:35:10;;;;;;;24.13;21.65;;;7.10;54.50;;;;;;5052102;28;20691;-66
2022/03/20 01:37:37;;;;;;;25.85;18.67;;;7.10;54.60;;;;;;5052309;28;20646;-65
2022/03/20 01:40:06;;;;;;;24.05;18.75;;;7.00;54.40;;;;;;5047342;28;20230;-65
2022/03/20 01:42:33;;;;;;;25.58;18.67;;;7.00;53.80;;;;;;5039146;28;20225;-65
2022/03/20 01:45:00;;;;;;;21.77;19.20;;;7.00;53.60;;;;;;5051806;28;20302;-65
2022/03/20 01:47:27;;;;;;;26.20;20.83;;;6.90;53.40;;;;;;5046883;28;20221;-65
2022/03/20 01:49:54;;;;;;;23.92;18.23;;;6.90;53.90;;;;;;5052208;28;20324;-65
2022/03/20 01:52:24;;;;;;;24.77;20.15;;;6.90;54.20;;;;;;5051060;28;20237;-66
2022/03/20 01:54:52;;;;;;;21.70;18.25;;;6.90;54.40;;;;;;5053613;28;20236;-65
2022/03/20 01:57:22;;;;;;;25.20;22.02;;;6.90;54.40;;;;;;5053189;28;20256;-65
2022/03/20 01:59:49;;;;;;;21.50;18.65;;;6.80;54.40;;;;;;5053914;28;20237;-65
2022/03/20 02:02:16;;;;;;;25.48;18.88;;;6.80;54.70;;;;;;5053373;28;20240;-65
2022/03/20 02:04:43;;;;;;;22.45;20.05;;;6.80;54.90;;;;;;5053985;28;20221;-65
2022/03/20 02:07:11;;;;;;;21.88;18.92;;;6.80;54.90;;;;;;5053087;28;20221;-65
2022/03/20 02:09:42;;;;;;;23.45;19.45;;;6.80;55.00;;;;;;5053704;28;20283;-66
2022/03/20 02:12:11;;;;;;;26.73;21.88;;;6.80;55.00;;;;;;5053275;28;20328;-65
2022/03/20 02:14:40;;;;;;;23.17;19.75;;;6.70;54.60;;;;;;5053298;28;20229;-66
2022/03/20 02:17:10;;;;;;;29.60;18.23;;;6.60;54.60;;;;;;5053280;28;20282;-65
2022/03/20 02:19:38;;;;;;;21.27;18.98;;;6.60;54.50;;;;;;5053377;28;20253;-66
2022/03/20 02:22:06;;;;;;;23.05;18.45;;;6.60;54.80;;;;;;5053226;28;20596;-65
2022/03/20 02:24:38;;;;;;;19.88;17.15;;;6.50;54.80;;;;;;5052950;28;20236;-65
2022/03/20 02:27:09;;;;;;;29.88;18.55;;;6.50;55.00;;;;;;5053132;28;20698;-65
2022/03/20 02:29:36;;;;;;;27.60;19.80;;;6.60;55.10;;;;;;5053383;28;20225;-65
2022/03/20 02:32:04;;;;;;;25.27;20.10;;;6.60;55.10;;;;;;5052790;28;20240;-65
2022/03/20 02:34:31;;;;;;;22.17;18.38;;;6.60;55.00;;;;;;5053088;28;20225;-66
2022/03/20 02:36:59;;;;;;;26.40;18.75;;;6.70;55.10;;;;;;5053259;28;20303;-66
2022/03/20 02:39:28;;;;;;;28.55;20.60;;;6.70;54.80;;;;;;5041447;28;20546;-65
2022/03/20 02:41:57;;;;;;;20.80;17.75;;;6.50;54.30;;;;;;5039673;28;20233;-64
2022/03/20 02:44:48;;;;;;;24.05;19.90;;;6.60;54.70;;;;;;5052651;28;20680;-64
2022/03/20 02:47:20;;;;;;;27.65;20.38;;;6.60;54.80;;;;;;5052553;28;20225;-65
2022/03/20 02:49:50;;;;;;;20.90;17.10;;;6.50;54.50;;;;;;5053079;28;20232;-65
2022/03/20 02:52:17;;;;;;;25.92;20.60;;;6.40;54.60;;;;;;5045287;28;20252;-65
2022/03/20 02:54:45;;;;;;;25.45;18.90;;;6.40;54.80;;;;;;5052996;28;20236;-65
2022/03/20 02:57:12;;;;;;;24.27;19.88;;;6.40;54.80;;;;;;5052669;28;20228;-65
2022/03/20 02:59:39;;;;;;;28.92;19.85;;;6.30;54.90;;;;;;5052618;28;20228;-65
2022/03/20 03:02:09;;;;;;;31.80;19.17;;;6.30;55.10;;;;;;5052439;28;20291;-65
2022/03/20 03:04:37;;;;;;;23.25;19.17;;;6.30;55.00;;;;;;5052733;28;20236;-66
2022/03/20 03:07:05;;;;;;;25.55;18.48;;;6.30;55.10;;;;;;5052454;28;20237;-65
2022/03/20 03:12:18;;;;;;;23.20;20.63;;;6.30;55.00;;;;;;5043904;28;20239;-65
2022/03/20 03:17:29;;;;;;;22.42;18.52;;;6.30;55.00;;;;;;5046861;28;20305;-65
2022/03/20 03:19:56;;;;;;;20.98;17.38;;;6.30;55.20;;;;;;5052378;28;20228;-64
2022/03/20 03:22:26;;;;;;;26.17;20.13;;;6.30;55.00;;;;;;5051844;28;20229;-65
2022/03/20 03:24:53;;;;;;;25.83;18.77;;;6.30;54.90;;;;;;5052175;28;20221;-66
2022/03/20 03:27:21;;;;;;;25.63;19.63;;;6.30;54.80;;;;;;5051977;28;20221;-65
2022/03/20 03:29:48;;;;;;;25.25;20.15;;;6.30;54.90;;;;;;5052559;28;20231;-65
2022/03/20 03:32:15;;;;;;;24.52;19.20;;;6.30;54.90;;;;;;5051781;28;20225;-66
2022/03/20 03:37:26;;;;;;;22.35;18.63;;;6.30;54.80;;;;;;5051964;28;20308;-65
2022/03/20 03:39:53;;;;;;;23.02;17.27;;;6.30;54.60;;;;;;5052033;28;20221;-65
2022/03/20 03:42:21;;;;;;;25.38;18.55;;;6.30;54.90;;;;;;5046297;28;20232;-65
2022/03/20 03:44:51;;;;;;;23.95;19.08;;;6.20;55.00;;;;;;5052273;28;20560;-65
2022/03/20 03:47:18;;;;;;;22.92;18.58;;;6.30;55.10;;;;;;5041852;28;20292;-65
2022/03/20 03:49:45;;;;;;;25.58;18.38;;;6.20;54.80;;;;;;5052183;28;20232;-65
2022/03/20 03:52:12;;;;;;;22.08;19.67;;;6.20;55.10;;;;;;5051409;28;20243;-66
2022/03/20 03:54:39;;;;;;;24.27;19.85;;;6.20;55.20;;;;;;5051660;28;20304;-66
2022/03/20 03:57:06;;;;;;;23.80;18.33;;;6.20;55.20;;;;;;5051879;28;20967;-66
2022/03/20 03:59:34;;;;;;;25.25;19.27;;;6.20;55.20;;;;;;5050918;28;20232;-65
2022/03/20 04:02:01;;;;;;;28.35;20.67;;;6.20;55.20;;;;;;5051970;28;20237;-65
2022/03/20 04:04:28;;;;;;;24.58;20.33;;;6.20;55.20;;;;;;5053652;28;20620;-65
2022/03/20 04:06:56;;;;;;;25.35;20.50;;;6.20;55.40;;;;;;5055510;28;20699;-65
2022/03/20 04:09:23;;;;;;;25.65;19.00;;;6.30;55.40;;;;;;5055705;28;20300;-65
2022/03/20 04:11:50;;;;;;;26.65;19.95;;;6.20;55.10;;;;;;5055909;28;20579;-65
2022/03/20 04:14:17;;;;;;;23.27;19.60;;;6.20;55.30;;;;;;5055596;28;20679;-65
2022/03/20 04:16:45;;;;;;;24.77;18.70;;;6.20;55.20;;;;;;5055889;28;20240;-65
2022/03/20 04:19:12;;;;;;;24.73;20.38;;;6.10;55.30;;;;;;5055859;28;20679;-64
2022/03/20 04:21:40;;;;;;;25.20;18.67;;;6.10;55.50;;;;;;5055655;28;20233;-64
2022/03/20 04:24:07;;;;;;;23.10;19.65;;;6.10;55.40;;;;;;5055865;28;20225;-65
2022/03/20 04:26:35;;;;;;;26.10;19.80;;;6.10;55.50;;;;;;5055265;28;20283;-65
2022/03/20 04:29:02;;;;;;;23.45;18.95;;;6.10;55.60;;;;;;5055992;28;20228;-65
2022/03/20 04:31:30;;;;;;;22.70;20.10;;;6.00;55.60;;;;;;5054955;28;20237;-65
2022/03/20 04:33:59;;;;;;;24.08;19.25;;;5.90;55.50;;;;;;5055671;28;20225;-65
2022/03/20 04:36:27;;;;;;;29.75;21.02;;;5.90;55.90;;;;;;5055103;28;20699;-66
2022/03/20 04:38:56;;;;;;;26.23;20.10;;;5.90;56.00;;;;;;5055542;28;20221;-65
2022/03/20 04:41:23;;;;;;;23.10;20.40;;;5.90;56.30;;;;;;5047868;28;20570;-64
2022/03/20 04:43:51;;;;;;;25.55;21.48;;;5.80;56.40;;;;;;5055619;28;20225;-65
2022/03/20 04:46:18;;;;;;;24.80;20.27;;;5.70;56.60;;;;;;5051920;28;20753;-65
2022/03/20 04:59:44;;;;;;;27.42;21.10;;;5.50;57.30;;;;;;5055235;28;20573;-66
2022/03/20 05:02:11;;;;;;;26.23;20.58;;;5.50;57.40;;;;;;5054445;28;20236;-64
2022/03/20 05:04:38;;;;;;;28.27;21.05;;;5.40;57.60;;;;;;5055011;28;20229;-65
2022/03/20 05:07:07;;;;;;;25.98;19.77;;;5.50;57.60;;;;;;5054478;28;20687;-65
2022/03/20 05:15:06;;;;;;;25.48;19.02;;;5.40;57.70;;;;;;5053323;28;20236;-64
2022/03/20 05:17:33;;;;;;;24.77;20.30;;;5.40;57.70;;;;;;5054579;28;20237;-65
2022/03/20 05:19:59;;;;;;;27.38;22.17;;;5.30;57.50;;;;;;5054251;28;20236;-66
2022/03/20 05:22:28;;;;;;;36.63;23.48;;;5.40;57.70;;;;;;5054222;28;20225;-65
2022/03/20 05:24:55;;;;;;;24.02;21.17;;;5.40;57.70;;;;;;5054586;28;20240;-66
2022/03/20 05:27:22;;;;;;;22.10;19.17;;;5.40;57.80;;;;;;5054319;28;20217;-66
2022/03/20 05:29:49;;;;;;;26.38;21.95;;;5.30;57.50;;;;;;5054545;28;20225;-64
2022/03/20 05:32:16;;;;;;;29.02;22.20;;;5.30;57.50;;;;;;5053759;28;20699;-66
2022/03/20 05:34:43;;;;;;;30.23;20.10;;;5.30;57.60;;;;;;5054492;28;20228;-65
2022/03/20 05:37:11;;;;;;;25.40;20.55;;;5.30;57.70;;;;;;5053870;28;20276;-65
2022/03/20 05:39:39;;;;;;;20.73;17.98;;;5.30;57.60;;;;;;5054151;28;20228;-65
2022/03/20 05:42:07;;;;;;;24.98;19.83;;;5.40;57.70;;;;;;5048396;28;20244;-64
2022/03/20 05:44:34;;;;;;;28.65;20.92;;;5.30;57.40;;;;;;5053995;28;20237;-65
2022/03/20 05:47:02;;;;;;;30.85;21.27;;;5.20;57.30;;;;;;5053433;28;20221;-66
2022/03/20 05:49:29;;;;;;;25.67;20.60;;;5.20;57.40;;;;;;5054233;28;20227;-65
2022/03/20 05:51:59;;;;;;;25.58;20.73;;;5.20;57.50;;;;;;5053719;28;20610;-65
2022/03/20 05:54:26;;;;;;;24.90;18.92;;;5.10;57.50;;;;;;5053555;28;20742;-66
2022/03/20 05:59:39;;;;;;;27.65;20.65;;;5.20;57.50;;;;;;5042813;28;20236;-65
2022/03/20 06:02:08;;;;;;;22.25;19.42;;;5.20;57.40;;;;;;5053034;28;20245;-66
2022/03/20 06:04:35;;;;;;;28.63;22.50;;;5.30;57.10;;;;;;5053951;28;20229;-65
2022/03/20 06:07:02;;;;;;;26.05;21.35;;;5.30;56.90;;;;;;5053375;28;20229;-65
2022/03/20 06:09:29;;;;;;;26.88;20.13;;;5.20;56.90;;;;;;5053731;28;20217;-65
2022/03/20 06:11:57;;;;;;;27.25;20.50;;;5.20;56.70;;;;;;5053147;28;20251;-65
2022/03/20 06:14:24;;;;;;;26.33;19.48;;;5.30;56.90;;;;;;5053800;28;20282;-65
2022/03/20 06:16:51;;;;;;;24.85;18.95;;;5.30;56.80;;;;;;5052904;28;20228;-64
2022/03/20 06:19:18;;;;;;;23.63;20.67;;;5.40;56.90;;;;;;5048524;28;20221;-65
2022/03/20 06:21:46;;;;;;;25.63;19.80;;;5.40;56.80;;;;;;5052773;28;20233;-65
2022/03/20 06:24:13;;;;;;;34.65;20.88;;;5.40;56.80;;;;;;5053289;28;20754;-65
2022/03/20 06:26:40;;;;;;;25.75;19.52;;;5.50;56.70;;;;;;5053059;28;20228;-65
2022/03/20 06:29:09;;;;;;;27.33;22.35;;;5.50;56.60;;;;;;5052870;28;20678;-65
2022/03/20 06:31:36;;;;;;;24.42;20.48;;;5.50;56.20;;;;;;5053039;28;20239;-66
2022/03/20 06:34:04;;;;;;;34.42;23.30;;;5.40;56.60;;;;;;5052997;28;20244;-66
2022/03/20 06:36:31;;;;;;;27.73;21.05;;;5.40;56.30;;;;;;5053122;28;20255;-66
2022/03/20 06:38:58;;;;;;;26.98;20.52;;;5.50;56.30;;;;;;5052674;28;20300;-66
2022/03/20 06:41:25;;;;;;;30.55;19.83;;;5.40;56.20;;;;;;5041874;28;20237;-66
2022/03/20 06:43:52;;;;;;;25.15;20.60;;;5.50;56.60;;;;;;5052553;28;20232;-66
2022/03/20 06:46:21;;;;;;;26.38;20.42;;;5.50;56.50;;;;;;5049635;28;20233;-66
2022/03/20 06:48:48;;;;;;;28.60;20.88;;;5.60;56.50;;;;;;5052722;28;20225;-66
2022/03/20 06:51:16;;;;;;;25.77;21.38;;;5.60;56.10;;;;;;5052001;28;20236;-66
2022/03/20 06:53:43;;;;;;;25.20;21.70;;;5.60;56.00;;;;;;5052725;28;20568;-66
2022/03/20 06:56:10;;;;;;;27.55;20.02;;;5.60;55.90;;;;;;5052329;28;20217;-66
2022/03/20 06:58:36;;;;;;;28.45;20.60;;;5.60;55.80;;;;;;5052643;28;20232;-66
2022/03/20 07:01:03;;;;;;;26.92;21.05;;;5.60;55.90;;;;;;5052136;28;20229;-66
2022/03/20 07:03:31;;;;;;;26.65;21.42;;;5.70;55.50;;;;;;5052655;28;20742;-66
2022/03/20 07:05:59;;;;;;;29.08;21.65;;;5.60;55.30;;;;;;5051810;28;20366;-66
2022/03/20 07:08:25;;;;;;;24.23;19.65;;;5.60;55.90;;;;;;5052358;28;20224;-66
2022/03/20 07:10:52;;;;;;;30.58;22.30;;;5.70;56.10;;;;;;5052150;28;20236;-65
2022/03/20 07:16:03;;;;;;;28.30;23.33;;;5.80;55.60;;;;;;5051383;28;20228;-65
2022/03/20 07:18:32;;;;;;;27.27;20.85;;;5.90;55.30;;;;;;5052024;28;20730;-65
2022/03/20 07:20:59;;;;;;;25.80;19.20;;;5.90;54.80;;;;;;5051869;28;20224;-65
2022/03/20 07:23:26;;;;;;;27.63;21.45;;;6.00;54.90;;;;;;5051240;28;20235;-65
2022/03/20 07:31:21;;;;;;;23.92;19.77;;;6.10;55.00;;;;;;5052381;28;20991;-65
2022/03/20 07:33:49;;;;;;;25.63;21.33;;;6.10;54.90;;;;;;5052421;28;20308;-65
2022/03/20 07:36:18;;;;;;;25.42;19.80;;;6.20;54.50;;;;;;5052016;28;20233;-65
2022/03/20 07:38:45;;;;;;;24.70;19.55;;;6.20;54.80;;;;;;5053213;28;20255;-66
2022/03/20 07:41:12;;;;;;;27.13;20.13;;;6.30;54.50;;;;;;5056057;28;20231;-65
2022/03/20 07:43:39;;;;;;;26.40;22.10;;;6.30;54.20;;;;;;5056712;28;20564;-65
2022/03/20 07:46:06;;;;;;;28.92;20.80;;;6.30;54.20;;;;;;5056259;28;20259;-65
2022/03/20 07:48:34;;;;;;;30.00;21.55;;;6.30;54.10;;;;;;5056300;28;20231;-66
2022/03/20 07:51:02;;;;;;;25.55;21.40;;;6.40;53.50;;;;;;5055828;28;20221;-66
2022/03/20 07:53:29;;;;;;;25.42;19.98;;;6.40;53.90;;;;;;5056282;28;20562;-65
2022/03/20 07:55:56;;;;;;;28.80;20.77;;;6.40;53.90;;;;;;5056329;28;20233;-65
2022/03/20 07:58:23;;;;;;;31.70;22.23;;;6.50;53.40;;;;;;5056177;28;20558;-65
2022/03/20 08:00:50;;;;;;;26.75;20.33;;;6.40;53.30;;;;;;5056359;28;20659;-65
2022/03/20 08:03:17;;;;;;;23.70;19.45;;;6.60;53.70;;;;;;5055727;28;20232;-66
2022/03/20 08:05:44;;;;;;;27.10;20.05;;;6.70;53.60;;;;;;5056305;28;20225;-65
2022/03/20 08:08:15;;;;;;;26.95;21.30;;;6.70;53.30;;;;;;5055611;28;20236;-64
2022/03/20 08:10:43;;;;;;;24.00;19.65;;;6.80;53.20;;;;;;5056041;28;20229;-65
2022/03/20 08:13:11;;;;;;;29.77;22.10;;;7.00;53.30;;;;;;5055898;28;20564;-66
2022/03/20 08:15:39;;;;;;;28.55;20.92;;;7.00;52.80;;;;;;5056090;28;20231;-65
2022/03/20 08:18:07;;;;;;;25.25;19.70;;;7.10;52.70;;;;;;5055440;28;20255;-65
2022/03/20 08:20:34;;;;;;;36.60;21.65;;;7.20;52.50;;;;;;5056081;28;20236;-65
2022/03/20 08:23:01;;;;;;;27.27;23.30;;;7.20;52.20;;;;;;5055385;28;20233;-65
2022/03/20 08:25:29;;;;;;;28.92;20.48;;;7.20;51.90;;;;;;5055811;28;20223;-67
2022/03/20 08:27:56;;;;;;;26.63;21.17;;;7.30;52.10;;;;;;5055932;28;20235;-66
2022/03/20 08:30:23;;;;;;;24.60;19.50;;;7.40;52.40;;;;;;5055359;28;20276;-66
2022/03/20 08:32:53;;;;;;;25.30;19.17;;;7.40;52.00;;;;;;5055777;28;20255;-65
2022/03/20 08:35:20;;;;;;;25.08;20.02;;;7.50;51.50;;;;;;5055362;28;20235;-65
2022/03/20 08:37:49;;;;;;;24.98;19.55;;;7.50;51.10;;;;;;5055754;28;20221;-65
2022/03/20 08:40:18;;;;;;;24.52;19.35;;;7.50;51.20;;;;;;5055179;28;20587;-65
2022/03/20 08:42:47;;;;;;;27.02;19.52;;;7.70;51.30;;;;;;5055401;28;20310;-65
2022/03/20 08:45:15;;;;;;;23.30;19.15;;;7.70;51.00;;;;;;5055111;28;20235;-65
2022/03/20 08:47:42;;;;;;;27.70;20.40;;;7.80;51.10;;;;;;5055489;28;20225;-66
2022/03/20 08:50:14;;;;;;;30.67;19.92;;;7.90;51.00;;;;;;5054819;28;20225;-66
2022/03/20 08:52:42;;;;;;;24.48;18.95;;;8.00;50.50;;;;;;5055289;28;20263;-66
2022/03/20 08:55:11;;;;;;;24.80;20.63;;;8.20;50.70;;;;;;5054971;28;20231;-65
2022/03/20 08:57:39;;;;;;;28.95;20.25;;;8.40;51.20;;;;;;5055326;28;20228;-65
2022/03/20 09:00:12;;;;;;;24.60;20.25;;;8.40;50.50;;;;;;5054926;28;20245;-65
2022/03/20 09:02:39;;;;;;;26.10;19.27;;;8.50;50.20;;;;;;5055200;28;20252;-65
2022/03/20 09:05:10;;;;;;;25.02;20.67;;;8.70;50.20;;;;;;5054844;28;20233;-64
2022/03/20 09:07:37;;;;;;;27.02;21.02;;;8.70;49.80;;;;;;5055256;28;20235;-65
2022/03/20 09:10:04;;;;;;;24.95;20.23;;;8.70;49.50;;;;;;5054511;28;20225;-65
2022/03/20 09:12:31;;;;;;;23.75;20.33;;;8.70;49.30;;;;;;5055058;28;20232;-65
2022/03/20 09:14:58;;;;;;;28.95;20.70;;;8.80;49.40;;;;;;5055210;28;20642;-65
2022/03/20 09:20:11;;;;;;;22.92;18.42;;;8.90;49.20;;;;;;5054337;28;20228;-65
2022/03/20 09:22:38;;;;;;;25.73;19.38;;;9.00;49.50;;;;;;5054827;28;20240;-65
2022/03/20 09:25:07;;;;;;;25.42;19.25;;;9.10;49.20;;;;;;5054558;28;20747;-65
2022/03/20 09:27:34;;;;;;;22.58;19.13;;;9.20;49.20;;;;;;5038129;28;20225;-65
2022/03/20 09:30:01;;;;;;;25.10;20.98;;;9.30;49.00;;;;;;5034775;28;20253;-65
2022/03/20 09:32:30;;;;;;;23.63;20.52;;;9.40;48.60;;;;;;5033407;28;20232;-66
2022/03/20 09:34:57;;;;;;;22.38;19.38;;;9.50;48.40;;;;;;5033860;28;20237;-66
2022/03/20 09:37:23;;;;;;;23.08;20.17;;;9.60;48.20;;;;;;5033446;28;20559;-64
2022/03/20 09:39:50;;;;;;;24.08;20.88;;;9.70;48.00;;;;;;5033783;28;20226;-64
2022/03/20 09:42:18;;;;;;;23.90;19.73;;;9.80;47.70;;;;;;5033154;28;20237;-65
2022/03/20 09:44:46;;;;;;;21.30;17.60;;;9.80;47.20;;;;;;5033741;28;20284;-65
2022/03/20 09:47:17;;;;;;;23.55;18.15;;;9.80;47.40;;;;;;5033887;28;20225;-64
2022/03/20 09:49:45;;;;;;;24.67;18.63;;;9.90;47.40;;;;;;5034329;28;20253;-65
2022/03/20 09:52:13;;;;;;;22.13;19.42;;;10.00;46.50;;;;;;5033495;28;20225;-65
2022/03/20 09:54:41;;;;;;;24.15;18.95;;;10.10;46.20;;;;;;5033811;28;20844;-65
2022/03/20 09:57:09;;;;;;;25.58;20.25;;;10.20;46.10;;;;;;5033692;28;20226;-64
2022/03/20 09:59:38;;;;;;;20.63;18.42;;;10.20;45.90;;;;;;5034113;28;20281;-65
2022/03/20 10:02:06;;;;;;;23.17;18.20;;;10.30;45.70;;;;;;5033134;28;20229;-65
2022/03/20 10:04:51;;;;;;;21.25;18.35;;;10.40;45.70;;;;;;5033570;28;20217;-65
2022/03/20 10:07:22;;;;;;;20.13;17.83;;;10.40;45.60;;;;;;5033303;28;20229;-65
2022/03/20 10:10:22;;;;;;;25.08;19.73;;;10.50;45.70;;;;;;5033813;28;20226;-65
2022/03/20 10:12:53;;;;;;;25.98;19.30;;;10.50;44.70;;;;;;5034040;28;20222;-65
2022/03/20 10:15:30;;;;;;;24.00;17.08;;;10.50;44.50;;;;;;5033709;28;20257;-66
2022/03/20 10:18:11;;;;;;;24.05;18.38;;;10.60;44.50;;;;;;5033358;28;20225;-65
2022/03/20 10:20:44;;;;;;;20.40;18.27;;;10.60;44.20;;;;;;5033519;28;20313;-65
2022/03/20 10:23:33;;;;;;;19.08;17.05;;;10.70;43.70;;;;;;5032947;28;20237;-65
2022/03/20 10:26:00;;;;;;;22.08;18.35;;;10.60;43.20;;;;;;5033142;28;20566;-65
2022/03/20 10:28:36;;;;;;;20.42;17.52;;;10.70;43.90;;;;;;5033403;28;20531;-65
2022/03/20 10:31:05;;;;;;;22.52;17.10;;;10.80;44.40;;;;;;5032877;28;20283;-64
2022/03/20 10:33:35;;;;;;;21.65;18.80;;;10.90;44.50;;;;;;5033230;28;20221;-66
2022/03/20 10:36:10;;;;;;;21.90;17.40;;;11.00;42.90;;;;;;5032806;28;20225;-66
2022/03/20 10:38:39;;;;;;;21.48;17.95;;;11.10;43.60;;;;;;5033218;28;20294;-65
2022/03/20 10:41:18;;;;;;;23.75;18.70;;;11.20;43.80;;;;;;5041187;28;20232;-65
2022/03/20 10:43:45;;;;;;;21.33;17.30;;;11.30;44.20;;;;;;5053010;28;20571;-66
2022/03/20 10:46:19;;;;;;;20.70;17.85;;;11.40;43.30;;;;;;5052620;28;20221;-66
2022/03/20 10:48:47;;;;;;;18.38;16.17;;;11.50;43.00;;;;;;5053006;28;20233;-65
2022/03/20 10:51:14;;;;;;;22.42;16.88;;;11.60;43.00;;;;;;5052580;28;20240;-66
2022/03/20 10:53:54;;;;;;;18.10;16.30;;;11.70;42.10;;;;;;5052605;28;20225;-66
2022/03/20 10:56:22;;;;;;;18.35;16.45;;;11.80;41.70;;;;;;5052436;28;20228;-66
2022/03/20 10:58:49;;;;;;;18.27;16.38;;;11.80;40.70;;;;;;5052693;28;20228;-66
2022/03/20 11:01:17;;;;;;;22.27;15.30;;;11.70;40.20;;;;;;5052215;28;20229;-65
2022/03/20 11:03:46;;;;;;;18.75;14.93;;;11.70;40.40;;;;;;5052641;28;20248;-66
2022/03/20 11:06:14;;;;;;;17.80;15.52;;;11.70;40.60;;;;;;5052407;28;20221;-66
2022/03/20 11:08:41;;;;;;;20.13;17.00;;;11.60;40.20;;;;;;5052350;28;20233;-65
2022/03/20 11:11:11;;;;;;;18.17;15.25;;;11.60;40.40;;;;;;5051945;28;20247;-66
2022/03/20 11:13:40;;;;;;;18.88;16.30;;;11.70;40.70;;;;;;5052689;28;20324;-64
2022/03/20 11:16:09;;;;;;;19.63;15.45;;;11.80;40.90;;;;;;5052034;28;20228;-66
2022/03/20 11:18:45;;;;;;;16.05;13.77;;;11.80;40.50;;;;;;5052650;28;20553;-66
2022/03/20 11:21:13;;;;;;;18.52;15.77;;;11.80;39.30;;;;;;5051846;28;20263;-65
2022/03/20 11:23:41;;;;;;;16.33;14.27;;;11.70;39.40;;;;;;5049454;28;20717;-65
2022/03/20 11:26:11;;;;;;;17.20;15.30;;;11.80;39.90;;;;;;5031836;28;20234;-66
2022/03/20 11:28:45;;;;;;;24.35;15.93;;;11.80;39.60;;;;;;5032495;28;20236;-65
2022/03/20 11:31:13;;;;;;;15.20;13.70;;;11.70;38.90;;;;;;5032061;28;20229;-64
2022/03/20 11:33:43;;;;;;;17.58;14.77;;;11.80;39.10;;;;;;5032514;28;20225;-66
2022/03/20 11:36:11;;;;;;;17.60;14.20;;;11.80;39.10;;;;;;5031915;28;20308;-66
2022/03/20 11:38:40;;;;;;;18.50;14.90;;;11.90;38.80;;;;;;5032284;28;20226;-65
2022/03/20 11:41:15;;;;;;;18.98;14.57;;;12.00;38.80;;;;;;5031656;28;20284;-66
2022/03/20 11:43:44;;;;;;;19.23;15.48;;;11.90;38.70;;;;;;5032307;28;20233;-66
2022/03/20 11:46:17;;;;;;;20.65;15.13;;;11.90;39.20;;;;;;5031934;28;20309;-66
2022/03/20 11:48:45;;;;;;;17.00;14.57;;;12.00;39.40;;;;;;5032246;28;20275;-66
2022/03/20 11:51:13;;;;;;;17.23;15.23;;;12.20;39.90;;;;;;5031670;28;20279;-65
2022/03/20 11:53:41;;;;;;;24.20;16.70;;;12.30;39.60;;;;;;5032063;28;20588;-64
2022/03/20 11:56:08;;;;;;;18.83;16.80;;;12.30;39.60;;;;;;5031983;28;20238;-65
2022/03/20 11:58:38;;;;;;;20.90;18.20;;;12.40;39.50;;;;;;5032164;28;20240;-65
2022/03/20 12:01:06;;;;;;;20.55;16.80;;;12.50;39.60;;;;;;5031606;28;20229;-65
2022/03/20 12:03:53;;;;;;;18.65;16.65;;;12.40;39.50;;;;;;5032056;28;20229;-66
2022/03/20 12:06:49;;;;;;;22.83;18.13;;;12.50;39.20;;;;;;5031636;28;20225;-65
2022/03/20 12:09:42;;;;;;;16.85;15.15;;;12.60;39.40;;;;;;5031731;28;20232;-65
2022/03/20 12:12:33;;;;;;;19.60;15.98;;;12.70;39.20;;;;;;5031526;28;20226;-65
2022/03/20 12:15:08;;;;;;;19.55;16.33;;;12.70;38.80;;;;;;5031947;28;20225;-66
2022/03/20 12:18:04;;;;;;;16.55;14.65;;;12.70;38.50;;;;;;5031766;28;20236;-66
2022/03/20 12:20:59;;;;;;;17.05;14.95;;;12.70;38.00;;;;;;5031436;28;20241;-66
2022/03/20 12:23:47;;;;;;;18.20;15.38;;;12.80;38.20;;;;;;5031241;28;20237;-66
2022/03/20 12:26:42;;;;;;;20.55;16.05;;;12.90;38.70;;;;;;5031342;28;20226;-65
2022/03/20 12:29:35;;;;;;;19.80;16.85;;;12.90;38.40;;;;;;5035701;28;20544;-66
2022/03/20 12:32:05;;;;;;;17.92;16.13;;;13.00;38.70;;;;;;5025249;28;20221;-64
2022/03/20 12:34:32;;;;;;;17.60;15.23;;;13.00;38.40;;;;;;5035531;28;20229;-65
2022/03/20 12:37:37;;;;;;;18.30;15.80;;;12.90;37.40;;;;;;5035113;28;20226;-65
2022/03/20 12:40:10;;;;;;;18.85;14.48;;;13.00;37.30;;;;;;5035169;28;20301;-66
2022/03/20 12:42:39;;;;;;;20.67;13.73;;;13.00;37.20;;;;;;5035535;28;20230;-65
2022/03/20 12:45:08;;;;;;;23.23;16.08;;;13.00;37.10;;;;;;5034925;28;20222;-66
2022/03/20 12:47:37;;;;;;;18.95;16.95;;;13.00;37.40;;;;;;5035485;28;20233;-66
2022/03/20 12:50:06;;;;;;;18.13;16.23;;;13.00;37.00;;;;;;5034695;28;20689;-65
2022/03/20 12:52:35;;;;;;;18.70;16.00;;;13.00;36.80;;;;;;5035236;28;20214;-65
2022/03/20 12:55:05;;;;;;;17.08;14.05;;;13.00;36.90;;;;;;5034577;28;20225;-65
2022/03/20 12:57:39;;;;;;;17.65;14.90;;;13.00;36.90;;;;;;5034919;28;20237;-65
2022/03/20 13:00:09;;;;;;;18.95;14.65;;;13.00;36.90;;;;;;5034579;28;20228;-66
2022/03/20 13:02:57;;;;;;;17.13;15.40;;;13.10;37.40;;;;;;5046353;28;20312;-66
2022/03/20 13:05:24;;;;;;;15.27;13.68;;;13.00;36.50;;;;;;5059059;28;20293;-65
2022/03/20 13:07:53;;;;;;;15.57;13.98;;;13.00;36.30;;;;;;5054848;28;20235;-65
2022/03/20 13:10:26;;;;;;;16.13;13.90;;;13.10;36.70;;;;;;5058525;28;20255;-65
2022/03/20 13:12:55;;;;;;;17.13;14.68;;;13.10;36.40;;;;;;5054913;28;20225;-65
2022/03/20 13:15:28;;;;;;;17.23;15.38;;;13.10;36.60;;;;;;5054209;28;20461;-65
2022/03/20 13:17:57;;;;;;;14.40;12.90;;;13.20;36.30;;;;;;5058058;28;20274;-65
2022/03/20 13:20:26;;;;;;;17.25;14.02;;;13.30;35.90;;;;;;5054350;28;20236;-65
2022/03/20 13:22:53;;;;;;;15.50;13.13;;;13.20;35.60;;;;;;5054555;28;20232;-65
2022/03/20 13:25:24;;;;;;;18.77;13.80;;;13.20;35.30;;;;;;5037376;28;20225;-65
2022/03/20 13:27:52;;;;;;;16.63;12.77;;;13.20;35.20;;;;;;5034499;28;20226;-65
2022/03/20 13:30:32;;;;;;;14.88;13.05;;;13.30;35.60;;;;;;5034052;28;20229;-65
2022/03/20 13:33:00;;;;;;;18.10;13.43;;;13.40;35.90;;;;;;5034504;28;20237;-65